TOM8325 LGKO-LGKR
Flight info
| Callsign | TOM8325 |
|---|---|
| Flight time | 1h 5m |
| Altitude | 32000 |
| Route | KOPAR UL995 KEA UL52 KOR UL53 PARNA |
| Aircraft | B738/M-SDFGHIJ1RWXYZ/LB1 |
Departure
| Time | 2026-05-05 18:54 |
|---|---|
| Airport | Kos International Airport "Ippokratis" (LGKO) |
Arrival
| Time | 2026-05-05 20:00 |
|---|---|
| Airport | Corfu Ioannis Kapodistrias International Airport (LGKR) |
| Time | Latitude | Longitude | Altitude | Speed | Heading |
|---|---|---|---|---|---|
| 2026-05-05 18:11 | 36.79976 | 27.09066 | 410 ft | 0 kts | 58° |
| 2026-05-05 18:44 | 36.79969 | 27.09052 | 407 ft | 3 kts | 58° |
| 2026-05-05 18:44 | 36.79959 | 27.09031 | 407 ft | 3 kts | 58° |
| 2026-05-05 18:45 | 36.79948 | 27.09011 | 408 ft | 3 kts | 58° |
| 2026-05-05 18:45 | 36.79941 | 27.08991 | 414 ft | 3 kts | 101° |
| 2026-05-05 18:45 | 36.79949 | 27.08974 | 410 ft | 3 kts | 144° |
| 2026-05-05 18:45 | 36.79961 | 27.08964 | 407 ft | 1 kts | 147° |
| 2026-05-05 18:46 | 36.79974 | 27.08953 | 414 ft | 3 kts | 147° |
| 2026-05-05 18:46 | 36.79980 | 27.08948 | 409 ft | 0 kts | 147° |
| 2026-05-05 18:49 | 36.79952 | 27.08971 | 412 ft | 9 kts | 149° |
| 2026-05-05 18:49 | 36.79878 | 27.08982 | 418 ft | 11 kts | 178° |
| 2026-05-05 18:50 | 36.79801 | 27.08986 | 416 ft | 11 kts | 178° |
| 2026-05-05 18:50 | 36.79727 | 27.08988 | 410 ft | 11 kts | 178° |
| 2026-05-05 18:50 | 36.79655 | 27.08991 | 417 ft | 10 kts | 178° |
| 2026-05-05 18:50 | 36.79585 | 27.09016 | 413 ft | 12 kts | 149° |
| 2026-05-05 18:51 | 36.79471 | 27.09104 | 413 ft | 26 kts | 148° |
| 2026-05-05 18:51 | 36.79282 | 27.09252 | 408 ft | 38 kts | 148° |
| 2026-05-05 18:51 | 36.79052 | 27.09428 | 398 ft | 39 kts | 148° |
| 2026-05-05 18:51 | 36.78826 | 27.09607 | 392 ft | 35 kts | 148° |
| 2026-05-05 18:52 | 36.78710 | 27.09696 | 392 ft | 6 kts | 147° |
| 2026-05-05 18:52 | 36.78673 | 27.09726 | 392 ft | 6 kts | 147° |
| 2026-05-05 18:52 | 36.78631 | 27.09760 | 391 ft | 9 kts | 147° |
| 2026-05-05 18:52 | 36.78572 | 27.09775 | 388 ft | 9 kts | 181° |
| 2026-05-05 18:53 | 36.78565 | 27.09812 | 387 ft | 4 kts | 15° |
| 2026-05-05 18:53 | 36.78590 | 27.09792 | 389 ft | 19 kts | 326° |
| 2026-05-05 18:53 | 36.78903 | 27.09545 | 396 ft | 87 kts | 328° |
| 2026-05-05 18:53 | 36.79583 | 27.09016 | 413 ft | 141 kts | 328° |
| 2026-05-05 18:54 | 36.80516 | 27.08311 | 755 ft | 159 kts | 327° |
| 2026-05-05 18:54 | 36.81467 | 27.07510 | 1345 ft | 170 kts | 315° |
| 2026-05-05 18:54 | 36.81982 | 27.06084 | 1833 ft | 198 kts | 276° |
| 2026-05-05 18:54 | 36.81715 | 27.04340 | 2341 ft | 217 kts | 246° |
| 2026-05-05 18:55 | 36.80837 | 27.02774 | 2985 ft | 228 kts | 237° |
| 2026-05-05 18:55 | 36.80044 | 27.01066 | 3746 ft | 226 kts | 262° |
| 2026-05-05 18:55 | 36.80045 | 26.99093 | 4328 ft | 238 kts | 281° |
| 2026-05-05 18:55 | 36.80274 | 26.96913 | 4593 ft | 269 kts | 281° |
| 2026-05-05 18:56 | 36.80538 | 26.94466 | 4862 ft | 299 kts | 281° |
| 2026-05-05 18:56 | 36.80822 | 26.91778 | 5159 ft | 324 kts | 281° |
| 2026-05-05 18:56 | 36.81112 | 26.88943 | 5912 ft | 332 kts | 281° |
| 2026-05-05 18:56 | 36.81397 | 26.86093 | 6885 ft | 332 kts | 281° |
| 2026-05-05 18:57 | 36.81682 | 26.83226 | 7815 ft | 336 kts | 281° |
| 2026-05-05 18:57 | 36.81969 | 26.80357 | 8652 ft | 342 kts | 281° |
| 2026-05-05 18:57 | 36.82266 | 26.77385 | 9470 ft | 348 kts | 281° |
| 2026-05-05 18:57 | 36.82568 | 26.74347 | 10183 ft | 354 kts | 281° |
| 2026-05-05 18:58 | 36.82830 | 26.71271 | 10991 ft | 358 kts | 279° |
| 2026-05-05 18:58 | 36.83156 | 26.68185 | 11794 ft | 357 kts | 289° |
| 2026-05-05 18:58 | 36.84080 | 26.65310 | 12583 ft | 357 kts | 298° |
| 2026-05-05 18:58 | 36.85130 | 26.62489 | 13335 ft | 361 kts | 297° |
| 2026-05-05 18:59 | 36.86161 | 26.59649 | 14033 ft | 366 kts | 297° |
| 2026-05-05 18:59 | 36.87186 | 26.56722 | 14709 ft | 369 kts | 296° |
| 2026-05-05 18:59 | 36.88202 | 26.53765 | 15398 ft | 372 kts | 296° |
| 2026-05-05 18:59 | 36.89218 | 26.50786 | 16090 ft | 374 kts | 296° |
| 2026-05-05 19:00 | 36.90240 | 26.47783 | 16754 ft | 377 kts | 296° |
| 2026-05-05 19:00 | 36.91269 | 26.44758 | 17419 ft | 380 kts | 296° |
| 2026-05-05 19:00 | 36.92307 | 26.41703 | 18066 ft | 382 kts | 296° |
| 2026-05-05 19:00 | 36.93350 | 26.38632 | 18637 ft | 385 kts | 296° |
| 2026-05-05 19:01 | 36.94402 | 26.35533 | 19207 ft | 387 kts | 296° |
| 2026-05-05 19:01 | 36.95441 | 26.32466 | 19784 ft | 388 kts | 296° |
| 2026-05-05 19:01 | 36.96494 | 26.29357 | 20375 ft | 389 kts | 296° |
| 2026-05-05 19:01 | 36.97550 | 26.26238 | 20944 ft | 390 kts | 296° |
| 2026-05-05 19:02 | 36.98612 | 26.23102 | 21478 ft | 391 kts | 296° |
| 2026-05-05 19:02 | 36.99677 | 26.19965 | 22029 ft | 392 kts | 296° |
| 2026-05-05 19:02 | 37.00748 | 26.16811 | 22553 ft | 394 kts | 296° |
| 2026-05-05 19:02 | 37.01821 | 26.13653 | 23061 ft | 395 kts | 296° |
| 2026-05-05 19:03 | 37.02897 | 26.10481 | 23564 ft | 397 kts | 296° |
| 2026-05-05 19:03 | 37.03977 | 26.07291 | 23950 ft | 399 kts | 296° |
| 2026-05-05 19:03 | 37.05047 | 26.04129 | 24341 ft | 400 kts | 296° |
| 2026-05-05 19:03 | 37.06132 | 26.00914 | 24752 ft | 401 kts | 296° |
| 2026-05-05 19:04 | 37.07224 | 25.97676 | 25163 ft | 402 kts | 296° |
| 2026-05-05 19:04 | 37.08312 | 25.94449 | 25514 ft | 404 kts | 297° |
| 2026-05-05 19:04 | 37.09408 | 25.91191 | 25918 ft | 404 kts | 297° |
| 2026-05-05 19:04 | 37.10500 | 25.87943 | 26296 ft | 405 kts | 297° |
| 2026-05-05 19:05 | 37.11595 | 25.84682 | 26648 ft | 406 kts | 297° |
| 2026-05-05 19:05 | 37.12693 | 25.81411 | 26987 ft | 408 kts | 297° |
| 2026-05-05 19:05 | 37.13793 | 25.78128 | 27325 ft | 409 kts | 297° |
| 2026-05-05 19:05 | 37.14881 | 25.74878 | 27661 ft | 410 kts | 297° |
| 2026-05-05 19:06 | 37.15985 | 25.71574 | 27983 ft | 411 kts | 297° |
| 2026-05-05 19:06 | 37.17092 | 25.68259 | 28298 ft | 413 kts | 297° |
| 2026-05-05 19:06 | 37.18198 | 25.64940 | 28686 ft | 412 kts | 297° |
| 2026-05-05 19:06 | 37.19297 | 25.61640 | 29213 ft | 407 kts | 297° |
| 2026-05-05 19:07 | 37.20378 | 25.58386 | 29875 ft | 401 kts | 298° |
| 2026-05-05 19:07 | 37.21098 | 25.56220 | 30252 ft | 398 kts | 298° |
| 2026-05-05 19:07 | 37.22509 | 25.51978 | 30668 ft | 398 kts | 298° |
| 2026-05-05 19:07 | 37.23571 | 25.48759 | 30880 ft | 401 kts | 297° |
| 2026-05-05 19:08 | 37.24268 | 25.46610 | 31058 ft | 401 kts | 297° |
| 2026-05-05 19:08 | 37.25315 | 25.43370 | 31392 ft | 400 kts | 297° |
| 2026-05-05 19:08 | 37.26359 | 25.40139 | 31736 ft | 399 kts | 297° |
| 2026-05-05 19:08 | 37.27402 | 25.36913 | 32041 ft | 399 kts | 297° |
| 2026-05-05 19:09 | 37.29296 | 25.30256 | 32052 ft | 406 kts | 294° |
| 2026-05-05 19:09 | 37.31049 | 25.23538 | 32056 ft | 401 kts | 294° |
| 2026-05-05 19:10 | 37.32801 | 25.16906 | 32071 ft | 399 kts | 294° |
| 2026-05-05 19:10 | 37.34554 | 25.10339 | 32076 ft | 399 kts | 294° |
| 2026-05-05 19:11 | 37.36321 | 25.03705 | 32078 ft | 400 kts | 294° |
| 2026-05-05 19:11 | 37.38083 | 24.97079 | 32077 ft | 399 kts | 294° |
| 2026-05-05 19:12 | 37.39841 | 24.90453 | 32080 ft | 399 kts | 294° |
| 2026-05-05 19:12 | 37.41586 | 24.83864 | 32086 ft | 399 kts | 294° |
| 2026-05-05 19:13 | 37.43342 | 24.77214 | 32079 ft | 400 kts | 294° |
| 2026-05-05 19:13 | 37.45095 | 24.70558 | 32062 ft | 400 kts | 294° |
| 2026-05-05 19:14 | 37.46838 | 24.63921 | 32072 ft | 401 kts | 294° |
| 2026-05-05 19:14 | 37.48588 | 24.57239 | 32070 ft | 401 kts | 294° |
| 2026-05-05 19:15 | 37.50331 | 24.50566 | 32067 ft | 401 kts | 293° |
| 2026-05-05 19:15 | 37.52060 | 24.43929 | 32067 ft | 401 kts | 293° |
| 2026-05-05 19:16 | 37.53799 | 24.37238 | 32045 ft | 401 kts | 293° |
| 2026-05-05 19:16 | 37.55531 | 24.30558 | 32060 ft | 401 kts | 293° |
| 2026-05-05 19:17 | 37.57343 | 24.23910 | 32063 ft | 400 kts | 294° |
| 2026-05-05 19:17 | 37.59218 | 24.17304 | 32068 ft | 400 kts | 294° |
| 2026-05-05 19:18 | 37.61085 | 24.10690 | 32069 ft | 400 kts | 294° |
| 2026-05-05 19:18 | 37.62930 | 24.04097 | 32057 ft | 400 kts | 294° |
| 2026-05-05 19:19 | 37.64776 | 23.97470 | 32066 ft | 400 kts | 294° |
| 2026-05-05 19:19 | 37.66616 | 23.90843 | 32074 ft | 401 kts | 294° |
| 2026-05-05 19:20 | 37.68461 | 23.84181 | 32072 ft | 401 kts | 294° |
| 2026-05-05 19:20 | 37.70302 | 23.77519 | 32074 ft | 401 kts | 294° |
| 2026-05-05 19:21 | 37.72140 | 23.70848 | 32068 ft | 402 kts | 294° |
| 2026-05-05 19:21 | 37.73966 | 23.64210 | 32075 ft | 403 kts | 294° |
| 2026-05-05 19:22 | 37.75805 | 23.57503 | 32073 ft | 405 kts | 294° |
| 2026-05-05 19:22 | 37.77651 | 23.50751 | 32076 ft | 407 kts | 294° |
| 2026-05-05 19:23 | 37.79499 | 23.43981 | 32074 ft | 408 kts | 294° |
| 2026-05-05 19:23 | 37.81341 | 23.37179 | 32071 ft | 409 kts | 293° |
| 2026-05-05 19:24 | 37.83176 | 23.30365 | 32079 ft | 410 kts | 293° |
| 2026-05-05 19:24 | 37.85013 | 23.23526 | 32082 ft | 410 kts | 293° |
| 2026-05-05 19:25 | 37.86837 | 23.16724 | 32081 ft | 410 kts | 293° |
| 2026-05-05 19:25 | 37.88668 | 23.09874 | 32063 ft | 410 kts | 293° |
| 2026-05-05 19:26 | 37.90496 | 23.03023 | 32079 ft | 410 kts | 293° |
| 2026-05-05 19:26 | 37.92318 | 22.96208 | 32091 ft | 410 kts | 295° |
| 2026-05-05 19:27 | 37.94962 | 22.89900 | 32088 ft | 403 kts | 308° |
| 2026-05-05 19:27 | 37.98220 | 22.84110 | 32095 ft | 404 kts | 307° |
| 2026-05-05 19:28 | 38.01452 | 22.78269 | 32088 ft | 404 kts | 307° |
| 2026-05-05 19:28 | 38.04646 | 22.72455 | 32085 ft | 403 kts | 307° |
| 2026-05-05 19:29 | 38.07848 | 22.66617 | 32096 ft | 403 kts | 307° |
| 2026-05-05 19:29 | 38.11051 | 22.60774 | 32095 ft | 403 kts | 307° |
| 2026-05-05 19:30 | 38.14251 | 22.54923 | 32107 ft | 403 kts | 307° |
| 2026-05-05 19:30 | 38.17449 | 22.49067 | 32100 ft | 403 kts | 307° |
| 2026-05-05 19:31 | 38.20647 | 22.43199 | 32094 ft | 403 kts | 307° |
| 2026-05-05 19:31 | 38.23837 | 22.37334 | 32108 ft | 404 kts | 307° |
| 2026-05-05 19:32 | 38.27040 | 22.31435 | 32115 ft | 405 kts | 306° |
| 2026-05-05 19:32 | 38.30226 | 22.25559 | 32128 ft | 406 kts | 306° |
| 2026-05-05 19:33 | 38.33431 | 22.19637 | 32111 ft | 406 kts | 306° |
| 2026-05-05 19:33 | 38.36635 | 22.13712 | 32115 ft | 406 kts | 306° |
| 2026-05-05 19:34 | 38.39835 | 22.07783 | 32104 ft | 405 kts | 306° |
| 2026-05-05 19:35 | 38.44617 | 21.98887 | 32125 ft | 406 kts | 306° |
| 2026-05-05 19:35 | 38.47791 | 21.92961 | 32139 ft | 407 kts | 306° |
| 2026-05-05 19:36 | 38.50991 | 21.86975 | 32136 ft | 408 kts | 306° |
| 2026-05-05 19:36 | 38.54194 | 21.80971 | 32128 ft | 409 kts | 306° |
| 2026-05-05 19:37 | 38.57416 | 21.74924 | 31854 ft | 415 kts | 305° |
| 2026-05-05 19:37 | 38.59017 | 21.71915 | 31608 ft | 413 kts | 305° |
| 2026-05-05 19:37 | 38.60630 | 21.68878 | 31057 ft | 412 kts | 305° |
| 2026-05-05 19:37 | 38.62239 | 21.65849 | 30357 ft | 411 kts | 304° |
| 2026-05-05 19:38 | 38.63844 | 21.62821 | 29474 ft | 411 kts | 304° |
| 2026-05-05 19:38 | 38.65435 | 21.59819 | 28919 ft | 404 kts | 304° |
| 2026-05-05 19:38 | 38.67002 | 21.56858 | 28355 ft | 399 kts | 304° |
| 2026-05-05 19:38 | 38.68552 | 21.53926 | 27769 ft | 395 kts | 304° |
| 2026-05-05 19:39 | 38.70082 | 21.51030 | 27186 ft | 391 kts | 304° |
| 2026-05-05 19:39 | 38.71599 | 21.48159 | 26638 ft | 389 kts | 304° |
| 2026-05-05 19:39 | 38.73131 | 21.45255 | 26095 ft | 398 kts | 304° |
| 2026-05-05 19:39 | 38.74687 | 21.42303 | 25512 ft | 399 kts | 305° |
| 2026-05-05 19:40 | 38.76216 | 21.39399 | 24970 ft | 395 kts | 305° |
| 2026-05-05 19:40 | 38.77749 | 21.36485 | 24420 ft | 392 kts | 305° |
| 2026-05-05 19:40 | 38.79269 | 21.33593 | 23845 ft | 389 kts | 305° |
| 2026-05-05 19:40 | 38.80774 | 21.30726 | 23216 ft | 386 kts | 305° |
| 2026-05-05 19:41 | 38.82266 | 21.27882 | 22625 ft | 382 kts | 305° |
| 2026-05-05 19:41 | 38.83743 | 21.25066 | 22074 ft | 378 kts | 305° |
| 2026-05-05 19:41 | 38.85202 | 21.22280 | 21539 ft | 374 kts | 304° |
| 2026-05-05 19:41 | 38.86650 | 21.19513 | 20999 ft | 371 kts | 304° |
| 2026-05-05 19:42 | 38.88081 | 21.16776 | 20477 ft | 368 kts | 304° |
| 2026-05-05 19:42 | 38.89487 | 21.14085 | 19948 ft | 365 kts | 304° |
| 2026-05-05 19:42 | 38.90895 | 21.11390 | 19439 ft | 363 kts | 304° |
| 2026-05-05 19:42 | 38.92298 | 21.08699 | 18933 ft | 362 kts | 304° |
| 2026-05-05 19:43 | 38.93698 | 21.06013 | 18423 ft | 363 kts | 304° |
| 2026-05-05 19:43 | 38.95110 | 21.03301 | 17827 ft | 367 kts | 304° |
| 2026-05-05 19:43 | 38.96534 | 21.00565 | 17273 ft | 368 kts | 304° |
| 2026-05-05 19:43 | 38.97956 | 20.97829 | 16729 ft | 365 kts | 304° |
| 2026-05-05 19:44 | 38.99341 | 20.95161 | 16213 ft | 361 kts | 304° |
| 2026-05-05 19:44 | 39.00729 | 20.92487 | 15703 ft | 358 kts | 304° |
| 2026-05-05 19:44 | 39.02105 | 20.89833 | 15200 ft | 355 kts | 304° |
| 2026-05-05 19:44 | 39.03471 | 20.87195 | 14702 ft | 353 kts | 304° |
| 2026-05-05 19:45 | 39.04829 | 20.84573 | 14211 ft | 351 kts | 304° |
| 2026-05-05 19:45 | 39.06181 | 20.81958 | 13671 ft | 351 kts | 304° |
| 2026-05-05 19:45 | 39.07538 | 20.79334 | 13136 ft | 353 kts | 304° |
| 2026-05-05 19:45 | 39.08899 | 20.76699 | 12556 ft | 355 kts | 304° |
| 2026-05-05 19:46 | 39.10268 | 20.74046 | 12049 ft | 355 kts | 304° |
| 2026-05-05 19:46 | 39.11631 | 20.71401 | 11573 ft | 353 kts | 304° |
| 2026-05-05 19:46 | 39.12984 | 20.68776 | 11019 ft | 351 kts | 304° |
| 2026-05-05 19:46 | 39.14326 | 20.66166 | 10516 ft | 350 kts | 304° |
| 2026-05-05 19:47 | 39.15656 | 20.63579 | 10431 ft | 335 kts | 304° |
| 2026-05-05 19:47 | 39.16918 | 20.61123 | 10325 ft | 322 kts | 304° |
| 2026-05-05 19:47 | 39.18112 | 20.58797 | 10254 ft | 309 kts | 304° |
| 2026-05-05 19:47 | 39.19279 | 20.56522 | 10173 ft | 298 kts | 304° |
| 2026-05-05 19:48 | 39.20400 | 20.54336 | 10084 ft | 288 kts | 304° |
| 2026-05-05 19:48 | 39.21490 | 20.52208 | 9846 ft | 284 kts | 304° |
| 2026-05-05 19:48 | 39.22577 | 20.50088 | 9505 ft | 283 kts | 304° |
| 2026-05-05 19:48 | 39.23647 | 20.47998 | 9186 ft | 282 kts | 304° |
| 2026-05-05 19:49 | 39.24721 | 20.45900 | 8853 ft | 281 kts | 303° |
| 2026-05-05 19:49 | 39.25448 | 20.44478 | 8608 ft | 281 kts | 303° |
| 2026-05-05 19:49 | 39.26793 | 20.41650 | 8069 ft | 277 kts | 296° |
| 2026-05-05 19:49 | 39.27614 | 20.39407 | 7588 ft | 276 kts | 294° |
| 2026-05-05 19:50 | 39.28395 | 20.37143 | 7077 ft | 276 kts | 293° |
| 2026-05-05 19:50 | 39.29175 | 20.34877 | 6611 ft | 277 kts | 293° |
| 2026-05-05 19:50 | 39.29965 | 20.32597 | 6298 ft | 277 kts | 293° |
| 2026-05-05 19:50 | 39.30751 | 20.30353 | 6078 ft | 272 kts | 293° |
| 2026-05-05 19:51 | 39.31520 | 20.28166 | 5793 ft | 270 kts | 294° |
| 2026-05-05 19:51 | 39.32300 | 20.25959 | 5511 ft | 268 kts | 294° |
| 2026-05-05 19:51 | 39.33075 | 20.23773 | 5242 ft | 266 kts | 294° |
| 2026-05-05 19:51 | 39.33843 | 20.21605 | 4951 ft | 265 kts | 294° |
| 2026-05-05 19:52 | 39.34605 | 20.19457 | 4794 ft | 258 kts | 294° |
| 2026-05-05 19:52 | 39.35340 | 20.17388 | 4712 ft | 249 kts | 294° |
| 2026-05-05 19:52 | 39.36048 | 20.15392 | 4632 ft | 239 kts | 294° |
| 2026-05-05 19:52 | 39.36727 | 20.13479 | 4571 ft | 230 kts | 294° |
| 2026-05-05 19:53 | 39.37382 | 20.11631 | 4490 ft | 221 kts | 294° |
| 2026-05-05 19:53 | 39.38003 | 20.09879 | 4429 ft | 207 kts | 294° |
| 2026-05-05 19:53 | 39.38578 | 20.08255 | 4314 ft | 196 kts | 294° |
| 2026-05-05 19:53 | 39.39127 | 20.06705 | 4231 ft | 183 kts | 293° |
| 2026-05-05 19:54 | 39.39649 | 20.05229 | 4156 ft | 180 kts | 293° |
| 2026-05-05 19:54 | 39.40168 | 20.03759 | 4063 ft | 180 kts | 293° |
| 2026-05-05 19:54 | 39.40688 | 20.02287 | 3882 ft | 180 kts | 293° |
| 2026-05-05 19:54 | 39.41204 | 20.00827 | 3697 ft | 178 kts | 293° |
| 2026-05-05 19:55 | 39.41717 | 19.99375 | 3515 ft | 177 kts | 293° |
| 2026-05-05 19:55 | 39.42324 | 19.97992 | 3300 ft | 179 kts | 315° |
| 2026-05-05 19:55 | 39.43427 | 19.97351 | 3157 ft | 178 kts | 344° |
| 2026-05-05 19:55 | 39.44616 | 19.96923 | 2950 ft | 173 kts | 343° |
| 2026-05-05 19:56 | 39.45741 | 19.96510 | 2770 ft | 161 kts | 343° |
| 2026-05-05 19:56 | 39.46791 | 19.96121 | 2518 ft | 154 kts | 343° |
| 2026-05-05 19:56 | 39.47819 | 19.95738 | 2323 ft | 154 kts | 343° |
| 2026-05-05 19:56 | 39.48860 | 19.95349 | 2124 ft | 156 kts | 343° |
| 2026-05-05 19:57 | 39.49901 | 19.94959 | 1900 ft | 156 kts | 343° |
| 2026-05-05 19:57 | 39.50589 | 19.94702 | 1772 ft | 155 kts | 344° |
| 2026-05-05 19:57 | 39.51961 | 19.94189 | 1493 ft | 154 kts | 343° |
| 2026-05-05 19:57 | 39.52948 | 19.93655 | 1295 ft | 154 kts | 332° |
| 2026-05-05 19:58 | 39.53887 | 19.92990 | 1090 ft | 154 kts | 335° |
| 2026-05-05 19:58 | 39.54906 | 19.92584 | 926 ft | 153 kts | 348° |
| 2026-05-05 19:58 | 39.55607 | 19.92416 | 777 ft | 156 kts | 349° |
| 2026-05-05 19:58 | 39.56675 | 19.92140 | 578 ft | 157 kts | 348° |
| 2026-05-05 19:59 | 39.57742 | 19.91857 | 383 ft | 155 kts | 348° |
| 2026-05-05 19:59 | 39.58798 | 19.91581 | 169 ft | 154 kts | 347° |
| 2026-05-05 19:59 | 39.59844 | 19.91303 | 22 ft | 146 kts | 349° |
| 2026-05-05 19:59 | 39.60628 | 19.91100 | 17 ft | 84 kts | 349° |
| 2026-05-05 20:00 | 39.60989 | 19.91007 | 18 ft | 22 kts | 349° |
| 2026-05-05 20:00 | 39.61133 | 19.90970 | 20 ft | 20 kts | 348° |
| 2026-05-05 20:00 | 39.61201 | 19.90952 | 20 ft | 7 kts | 349° |
| 2026-05-05 20:00 | 39.61230 | 19.90976 | 23 ft | 5 kts | 77° |
| 2026-05-05 20:01 | 39.61219 | 19.91037 | 19 ft | 10 kts | 112° |
| 2026-05-05 20:01 | 39.61180 | 19.91100 | 18 ft | 8 kts | 173° |
| 2026-05-05 20:01 | 39.61124 | 19.91106 | 18 ft | 8 kts | 170° |
| 2026-05-05 20:01 | 39.61072 | 19.91119 | 18 ft | 8 kts | 168° |
| 2026-05-05 20:02 | 39.61021 | 19.91133 | 18 ft | 7 kts | 168° |
| 2026-05-05 20:02 | 39.60975 | 19.91154 | 18 ft | 7 kts | 130° |
| 2026-05-05 20:02 | 39.60976 | 19.91213 | 18 ft | 4 kts | 80° |
| 2026-05-05 20:02 | 39.60979 | 19.91233 | 18 ft | 0 kts | 80° |